Portada
METAR-TAF:

METAR-TAF

Aeroports :

Vanua Lava, Vanuatu

latitud: 13-51-06S, longitud: 167-32-13E, altitud: 2 m

Observació

L'informe es va fer fa 2 hores i 36 minuts, a les 06:00 UTC
Vent 5 kt del Est/Sud-Est
Temperatura 27°C
Humitat 84%
Pressió 1011 hPa
Visibilitat 10 km o més
Cel ennuvolat a una alçada de 1800 ft
Cel cobert a una alçada de 10000 ft

METAR: NVSC 120600Z 11005KT 9999 BKN018 OVC100 27/24 Q1011

Hora: 19:36 (08:36 UTC)

Pronòstic

L'informe es va fer fa 4 hores i 6 minuts, a les 04:30 UTC
Pronòstic vàlid del 12 a les 06 UTC al 13 a les 06 UTC
Vent 4 kt del Est/Sud-Est
Visibilitat: 8000 m
Núvols disperses a una alçada de 2000 ft
Cel ennuvolat a una alçada de 10000 ft
Escasses núvols a una alçada de 800 ft
Cel ennuvolat a una alçada de 1600 ft
xàfecs de pluja
Evolucionant progressivament
l' 12 a les 06 UTC al 12 a les 08 UTC
Vent 3 kt amb direcció variable

TAF: NVSC 120430Z 1206/1306 11004KT 9999 SCT020 BKN100 INTER 1206/1212 8000 SHRA FEW008 BKN016 BECMG 1206/1208 VRB03KT

Observacions i pronòstics meteorològics de més de 4000 aeroports (METAR i TAF).

Les estacions disponibles són els punts grocs i vermells al mapa.

Posi el ratolí al punt desitjat per veure el nom de l'estació.

Feu clic per veure les observacions i els pronòstics meteorològics.

Per canviar el mapa: feu clic els botons verds amb una creu de color negre per apropar; al botó verd amb un guió per allunyar la imatge; o en les fletxes verdes per a mapes adjacents.


METAR-TAF: